sensor_id;sensor_type;location;lat;lon;timestamp;pressure;altitude;pressure_sealevel;temperature;humidity
49947;BME280;35839;48.662;13.300;2024-02-26T00:02:11;95897.22;;;1.00;100.00
49947;BME280;35839;48.662;13.300;2024-02-26T00:04:36;95912.78;;;1.10;100.00
49947;BME280;35839;48.662;13.300;2024-02-26T00:07:03;95915.19;;;1.11;100.00
49947;BME280;35839;48.662;13.300;2024-02-26T00:09:28;95908.09;;;1.24;100.00
49947;BME280;35839;48.662;13.300;2024-02-26T00:11:53;95900.84;;;1.18;100.00
49947;BME280;35839;48.662;13.300;2024-02-26T00:14:21;95910.03;;;1.11;100.00
49947;BME280;35839;48.662;13.300;2024-02-26T00:16:46;95900.63;;;1.21;100.00
49947;BME280;35839;48.662;13.300;2024-02-26T00:19:11;95898.78;;;1.33;100.00
49947;BME280;35839;48.662;13.300;2024-02-26T00:21:40;95885.81;;;1.23;100.00
49947;BME280;35839;48.662;13.300;2024-02-26T00:24:07;95885.84;;;1.02;100.00
49947;BME280;35839;48.662;13.300;2024-02-26T00:26:32;95892.34;;;0.97;100.00
49947;BME280;35839;48.662;13.300;2024-02-26T00:28:58;95889.34;;;1.22;100.00
49947;BME280;35839;48.662;13.300;2024-02-26T00:31:23;95884.28;;;1.11;100.00
49947;BME280;35839;48.662;13.300;2024-02-26T00:33:49;95889.31;;;1.13;100.00
49947;BME280;35839;48.662;13.300;2024-02-26T00:36:14;95871.56;;;0.89;100.00
49947;BME280;35839;48.662;13.300;2024-02-26T00:38:40;95879.56;;;0.95;100.00
49947;BME280;35839;48.662;13.300;2024-02-26T00:41:06;95874.84;;;1.21;100.00
49947;BME280;35839;48.662;13.300;2024-02-26T00:43:31;95875.25;;;1.26;100.00
49947;BME280;35839;48.662;13.300;2024-02-26T00:45:57;95872.00;;;1.24;100.00
49947;BME280;35839;48.662;13.300;2024-02-26T00:48:22;95872.41;;;1.30;100.00
49947;BME280;35839;48.662;13.300;2024-02-26T00:50:50;95862.31;;;1.47;100.00
49947;BME280;35839;48.662;13.300;2024-02-26T00:53:16;95865.06;;;1.25;100.00
49947;BME280;35839;48.662;13.300;2024-02-26T00:55:41;95860.66;;;1.06;100.00
49947;BME280;35839;48.662;13.300;2024-02-26T00:58:06;95852.47;;;1.01;100.00
49947;BME280;35839;48.662;13.300;2024-02-26T01:00:32;95855.44;;;0.96;100.00
49947;BME280;35839;48.662;13.300;2024-02-26T01:02:57;95851.75;;;0.89;100.00
49947;BME280;35839;48.662;13.300;2024-02-26T01:05:24;95846.28;;;1.13;100.00
49947;BME280;35839;48.662;13.300;2024-02-26T01:07:49;95847.22;;;0.81;100.00
49947;BME280;35839;48.662;13.300;2024-02-26T01:10:15;95849.06;;;1.21;100.00
49947;BME280;35839;48.662;13.300;2024-02-26T01:12:40;95847.13;;;1.23;100.00
49947;BME280;35839;48.662;13.300;2024-02-26T01:15:06;95830.91;;;1.02;100.00
49947;BME280;35839;48.662;13.300;2024-02-26T01:17:31;95844.13;;;1.18;100.00
49947;BME280;35839;48.662;13.300;2024-02-26T01:19:56;95837.59;;;1.14;100.00
49947;BME280;35839;48.662;13.300;2024-02-26T01:22:22;95837.34;;;1.17;100.00
49947;BME280;35839;48.662;13.300;2024-02-26T01:24:47;95824.28;;;1.09;100.00
49947;BME280;35839;48.662;13.300;2024-02-26T01:27:13;95836.78;;;1.14;100.00
49947;BME280;35839;48.662;13.300;2024-02-26T01:29:40;95821.47;;;1.12;100.00
49947;BME280;35839;48.662;13.300;2024-02-26T01:32:06;95823.16;;;0.71;100.00
49947;BME280;35839;48.662;13.300;2024-02-26T01:34:31;95829.28;;;1.01;100.00
49947;BME280;35839;48.662;13.300;2024-02-26T01:36:57;95831.41;;;0.65;100.00
49947;BME280;35839;48.662;13.300;2024-02-26T01:39:22;95829.09;;;0.93;100.00
49947;BME280;35839;48.662;13.300;2024-02-26T01:41:48;95822.22;;;0.72;100.00
49947;BME280;35839;48.662;13.300;2024-02-26T01:44:13;95824.59;;;0.85;100.00
49947;BME280;35839;48.662;13.300;2024-02-26T01:46:39;95820.94;;;0.88;100.00
49947;BME280;35839;48.662;13.300;2024-02-26T01:49:06;95824.09;;;0.91;100.00
49947;BME280;35839;48.662;13.300;2024-02-26T01:51:33;95827.38;;;0.72;100.00
49947;BME280;35839;48.662;13.300;2024-02-26T01:53:59;95827.44;;;0.82;100.00
49947;BME280;35839;48.662;13.300;2024-02-26T01:56:26;95827.13;;;0.75;100.00
49947;BME280;35839;48.662;13.300;2024-02-26T01:58:56;95830.00;;;1.13;100.00
49947;BME280;35839;48.662;13.300;2024-02-26T02:01:22;95835.78;;;0.74;100.00
49947;BME280;35839;48.662;13.300;2024-02-26T02:03:50;95832.75;;;0.90;100.00
49947;BME280;35839;48.662;13.300;2024-02-26T02:06:16;95832.84;;;0.58;100.00
49947;BME280;35839;48.662;13.300;2024-02-26T02:08:42;95837.16;;;0.78;100.00
49947;BME280;35839;48.662;13.300;2024-02-26T02:11:08;95839.56;;;0.91;100.00
49947;BME280;35839;48.662;13.300;2024-02-26T02:13:36;95837.88;;;0.80;100.00
49947;BME280;35839;48.662;13.300;2024-02-26T02:16:02;95842.69;;;0.95;100.00
49947;BME280;35839;48.662;13.300;2024-02-26T02:18:27;95841.59;;;0.46;100.00
49947;BME280;35839;48.662;13.300;2024-02-26T02:20:53;95845.53;;;0.71;100.00
49947;BME280;35839;48.662;13.300;2024-02-26T02:23:19;95854.66;;;0.54;100.00
49947;BME280;35839;48.662;13.300;2024-02-26T02:25:44;95850.06;;;0.36;100.00
49947;BME280;35839;48.662;13.300;2024-02-26T02:28:10;95849.28;;;0.25;100.00
49947;BME280;35839;48.662;13.300;2024-02-26T02:30:35;95859.09;;;0.31;100.00
49947;BME280;35839;48.662;13.300;2024-02-26T02:33:01;95849.44;;;0.44;100.00
49947;BME280;35839;48.662;13.300;2024-02-26T02:35:27;95850.06;;;0.57;100.00
49947;BME280;35839;48.662;13.300;2024-02-26T02:37:52;95848.13;;;0.50;100.00
49947;BME280;35839;48.662;13.300;2024-02-26T02:40:18;95840.56;;;0.58;100.00
49947;BME280;35839;48.662;13.300;2024-02-26T02:42:43;95856.97;;;0.57;100.00
49947;BME280;35839;48.662;13.300;2024-02-26T02:45:09;95847.38;;;0.59;100.00
49947;BME280;35839;48.662;13.300;2024-02-26T02:47:38;95845.34;;;0.41;100.00
49947;BME280;35839;48.662;13.300;2024-02-26T02:50:04;95848.59;;;0.23;100.00
49947;BME280;35839;48.662;13.300;2024-02-26T02:52:29;95834.16;;;0.31;100.00
49947;BME280;35839;48.662;13.300;2024-02-26T02:54:54;95835.63;;;0.45;100.00
49947;BME280;35839;48.662;13.300;2024-02-26T02:57:20;95835.47;;;0.47;100.00
49947;BME280;35839;48.662;13.300;2024-02-26T02:59:46;95833.91;;;0.34;100.00
49947;BME280;35839;48.662;13.300;2024-02-26T03:02:11;95831.47;;;0.33;100.00
49947;BME280;35839;48.662;13.300;2024-02-26T03:04:37;95828.38;;;0.60;100.00
49947;BME280;35839;48.662;13.300;2024-02-26T03:07:02;95823.22;;;0.60;100.00
49947;BME280;35839;48.662;13.300;2024-02-26T03:09:28;95820.59;;;0.71;100.00
49947;BME280;35839;48.662;13.300;2024-02-26T03:11:53;95813.06;;;0.79;100.00
49947;BME280;35839;48.662;13.300;2024-02-26T03:14:18;95816.06;;;0.84;100.00
49947;BME280;35839;48.662;13.300;2024-02-26T03:16:45;95813.34;;;0.86;100.00
49947;BME280;35839;48.662;13.300;2024-02-26T03:19:10;95810.28;;;0.71;100.00
49947;BME280;35839;48.662;13.300;2024-02-26T03:21:36;95813.56;;;0.52;100.00
49947;BME280;35839;48.662;13.300;2024-02-26T03:24:01;95808.97;;;0.56;100.00
49947;BME280;35839;48.662;13.300;2024-02-26T03:26:27;95799.34;;;0.58;100.00
49947;BME280;35839;48.662;13.300;2024-02-26T03:28:52;95806.59;;;0.43;100.00
49947;BME280;35839;48.662;13.300;2024-02-26T03:31:18;95799.06;;;0.30;100.00
49947;BME280;35839;48.662;13.300;2024-02-26T03:33:43;95807.16;;;0.47;100.00
49947;BME280;35839;48.662;13.300;2024-02-26T03:36:08;95806.22;;;0.48;100.00
49947;BME280;35839;48.662;13.300;2024-02-26T03:38:34;95789.28;;;0.45;100.00
49947;BME280;35839;48.662;13.300;2024-02-26T03:40:59;95798.03;;;0.84;100.00
49947;BME280;35839;48.662;13.300;2024-02-26T03:43:25;95771.25;;;0.24;100.00
49947;BME280;35839;48.662;13.300;2024-02-26T03:45:50;95802.63;;;0.60;100.00
49947;BME280;35839;48.662;13.300;2024-02-26T03:48:15;95802.91;;;0.57;100.00
49947;BME280;35839;48.662;13.300;2024-02-26T03:50:41;95794.22;;;0.58;100.00
49947;BME280;35839;48.662;13.300;2024-02-26T03:53:06;95798.28;;;0.60;100.00
49947;BME280;35839;48.662;13.300;2024-02-26T03:55:34;95801.25;;;0.56;100.00
49947;BME280;35839;48.662;13.300;2024-02-26T03:57:59;95801.00;;;0.17;100.00
49947;BME280;35839;48.662;13.300;2024-02-26T04:00:25;95809.72;;;0.05;100.00
49947;BME280;35839;48.662;13.300;2024-02-26T04:02:51;95807.13;;;0.05;100.00
49947;BME280;35839;48.662;13.300;2024-02-26T04:05:16;95805.09;;;0.19;100.00
49947;BME280;35839;48.662;13.300;2024-02-26T04:07:42;95814.44;;;0.20;100.00
49947;BME280;35839;48.662;13.300;2024-02-26T04:10:11;95809.94;;;0.55;100.00
49947;BME280;35839;48.662;13.300;2024-02-26T04:12:40;95819.28;;;0.56;100.00
49947;BME280;35839;48.662;13.300;2024-02-26T04:15:10;95806.75;;;0.72;100.00
49947;BME280;35839;48.662;13.300;2024-02-26T04:17:36;95826.34;;;0.33;100.00
49947;BME280;35839;48.662;13.300;2024-02-26T04:20:03;95825.63;;;0.10;100.00
49947;BME280;35839;48.662;13.300;2024-02-26T04:22:30;95825.28;;;0.03;100.00
49947;BME280;35839;48.662;13.300;2024-02-26T04:24:56;95825.38;;;0.13;100.00
49947;BME280;35839;48.662;13.300;2024-02-26T04:27:21;95827.88;;;0.24;100.00
49947;BME280;35839;48.662;13.300;2024-02-26T04:29:47;95819.84;;;0.17;100.00
49947;BME280;35839;48.662;13.300;2024-02-26T04:32:12;95808.00;;;0.26;100.00
49947;BME280;35839;48.662;13.300;2024-02-26T04:34:37;95820.59;;;0.29;100.00
49947;BME280;35839;48.662;13.300;2024-02-26T04:37:03;95823.28;;;0.07;100.00
49947;BME280;35839;48.662;13.300;2024-02-26T04:39:28;95833.44;;;-0.24;100.00
49947;BME280;35839;48.662;13.300;2024-02-26T04:41:54;95830.81;;;-0.02;100.00
49947;BME280;35839;48.662;13.300;2024-02-26T04:44:19;95838.94;;;0.15;100.00
49947;BME280;35839;48.662;13.300;2024-02-26T04:46:44;95832.13;;;0.14;100.00
49947;BME280;35839;48.662;13.300;2024-02-26T04:49:10;95827.38;;;0.30;100.00
49947;BME280;35839;48.662;13.300;2024-02-26T04:51:35;95825.63;;;0.10;100.00
49947;BME280;35839;48.662;13.300;2024-02-26T04:54:00;95813.22;;;0.04;100.00
49947;BME280;35839;48.662;13.300;2024-02-26T04:56:27;95811.31;;;0.17;100.00
49947;BME280;35839;48.662;13.300;2024-02-26T04:58:52;95815.63;;;-0.05;100.00
49947;BME280;35839;48.662;13.300;2024-02-26T05:01:18;95819.66;;;-0.23;100.00
49947;BME280;35839;48.662;13.300;2024-02-26T05:03:44;95799.88;;;-0.55;100.00
49947;BME280;35839;48.662;13.300;2024-02-26T05:06:09;95805.44;;;-0.06;100.00
49947;BME280;35839;48.662;13.300;2024-02-26T05:08:35;95813.00;;;0.28;100.00
49947;BME280;35839;48.662;13.300;2024-02-26T05:11:02;95811.31;;;0.17;100.00
49947;BME280;35839;48.662;13.300;2024-02-26T05:13:29;95824.75;;;0.41;100.00
49947;BME280;35839;48.662;13.300;2024-02-26T05:15:54;95825.88;;;0.49;100.00
49947;BME280;35839;48.662;13.300;2024-02-26T05:18:19;95836.31;;;0.47;100.00
49947;BME280;35839;48.662;13.300;2024-02-26T05:20:45;95835.91;;;0.10;100.00
49947;BME280;35839;48.662;13.300;2024-02-26T05:23:10;95826.81;;;0.06;100.00
49947;BME280;35839;48.662;13.300;2024-02-26T05:25:36;95823.28;;;0.07;100.00
49947;BME280;35839;48.662;13.300;2024-02-26T05:28:01;95815.81;;;0.04;100.00
49947;BME280;35839;48.662;13.300;2024-02-26T05:30:26;95822.69;;;-0.18;100.00
49947;BME280;35839;48.662;13.300;2024-02-26T05:32:53;95823.34;;;-0.05;100.00
49947;BME280;35839;48.662;13.300;2024-02-26T05:35:19;95818.06;;;-0.03;100.00
49947;BME280;35839;48.662;13.300;2024-02-26T05:37:44;95828.78;;;0.02;100.00
49947;BME280;35839;48.662;13.300;2024-02-26T05:40:10;95826.84;;;-0.06;100.00
49947;BME280;35839;48.662;13.300;2024-02-26T05:42:36;95816.91;;;-0.10;100.00
49947;BME280;35839;48.662;13.300;2024-02-26T05:45:01;95827.66;;;-0.05;100.00
49947;BME280;35839;48.662;13.300;2024-02-26T05:47:34;95832.31;;;0.01;100.00
49947;BME280;35839;48.662;13.300;2024-02-26T05:50:00;95829.84;;;0.32;100.00
49947;BME280;35839;48.662;13.300;2024-02-26T05:52:26;95835.19;;;0.19;100.00
49947;BME280;35839;48.662;13.300;2024-02-26T05:54:53;95830.19;;;0.06;100.00
49947;BME280;35839;48.662;13.300;2024-02-26T05:57:19;95825.47;;;-0.21;100.00
49947;BME280;35839;48.662;13.300;2024-02-26T05:59:45;95842.28;;;-0.06;100.00
49947;BME280;35839;48.662;13.300;2024-02-26T06:02:10;95843.25;;;-0.18;100.00
49947;BME280;35839;48.662;13.300;2024-02-26T06:04:36;95845.13;;;-0.20;100.00
49947;BME280;35839;48.662;13.300;2024-02-26T06:07:01;95836.56;;;-0.09;100.00
49947;BME280;35839;48.662;13.300;2024-02-26T06:09:26;95813.78;;;-0.14;100.00
49947;BME280;35839;48.662;13.300;2024-02-26T06:11:52;95836.97;;;0.07;100.00
49947;BME280;35839;48.662;13.300;2024-02-26T06:14:17;95844.19;;;0.13;100.00
49947;BME280;35839;48.662;13.300;2024-02-26T06:16:44;95850.50;;;0.09;100.00
49947;BME280;35839;48.662;13.300;2024-02-26T06:19:09;95854.94;;;0.18;100.00
49947;BME280;35839;48.662;13.300;2024-02-26T06:21:35;95851.44;;;0.19;100.00
49947;BME280;35839;48.662;13.300;2024-02-26T06:24:01;95857.66;;;0.17;100.00
49947;BME280;35839;48.662;13.300;2024-02-26T06:26:26;95848.53;;;0.13;100.00
49947;BME280;35839;48.662;13.300;2024-02-26T06:28:54;95867.28;;;0.04;100.00
49947;BME280;35839;48.662;13.300;2024-02-26T06:31:20;95860.53;;;-0.09;100.00
49947;BME280;35839;48.662;13.300;2024-02-26T06:33:47;95867.63;;;-0.01;100.00
49947;BME280;35839;48.662;13.300;2024-02-26T06:36:12;95872.66;;;0.12;100.00
49947;BME280;35839;48.662;13.300;2024-02-26T06:38:38;95875.16;;;0.23;100.00
49947;BME280;35839;48.662;13.300;2024-02-26T06:41:03;95874.53;;;0.63;100.00
49947;BME280;35839;48.662;13.300;2024-02-26T06:43:29;95880.59;;;0.62;100.00
49947;BME280;35839;48.662;13.300;2024-02-26T06:45:55;95885.91;;;0.28;100.00
49947;BME280;35839;48.662;13.300;2024-02-26T06:48:23;95887.53;;;0.29;100.00
49947;BME280;35839;48.662;13.300;2024-02-26T06:50:48;95888.59;;;0.59;100.00
49947;BME280;35839;48.662;13.300;2024-02-26T06:53:14;95884.88;;;0.73;100.00
49947;BME280;35839;48.662;13.300;2024-02-26T06:55:39;95886.69;;;0.61;100.00
49947;BME280;35839;48.662;13.300;2024-02-26T06:58:05;95888.81;;;0.77;100.00
49947;BME280;35839;48.662;13.300;2024-02-26T07:00:31;95884.19;;;0.92;100.00
49947;BME280;35839;48.662;13.300;2024-02-26T07:02:56;95871.91;;;1.36;100.00
49947;BME280;35839;48.662;13.300;2024-02-26T07:05:22;95883.91;;;1.25;100.00
49947;BME280;35839;48.662;13.300;2024-02-26T07:07:47;95882.28;;;1.55;100.00
49947;BME280;35839;48.662;13.300;2024-02-26T07:10:12;95883.16;;;1.75;100.00
49947;BME280;35839;48.662;13.300;2024-02-26T07:12:38;95887.47;;;1.75;100.00
49947;BME280;35839;48.662;13.300;2024-02-26T07:15:04;95888.19;;;1.86;100.00
49947;BME280;35839;48.662;13.300;2024-02-26T07:17:32;95883.47;;;1.92;100.00
49947;BME280;35839;48.662;13.300;2024-02-26T07:19:59;95888.84;;;1.79;100.00
49947;BME280;35839;48.662;13.300;2024-02-26T07:22:24;95889.94;;;1.76;100.00
49947;BME280;35839;48.662;13.300;2024-02-26T07:24:50;95888.50;;;2.03;100.00
49947;BME280;35839;48.662;13.300;2024-02-26T07:27:15;95893.50;;;1.95;100.00
49947;BME280;35839;48.662;13.300;2024-02-26T07:29:43;95884.44;;;2.20;100.00
49947;BME280;35839;48.662;13.300;2024-02-26T07:32:08;95884.16;;;2.23;100.00
49947;BME280;35839;48.662;13.300;2024-02-26T07:34:33;95890.00;;;2.44;100.00
49947;BME280;35839;48.662;13.300;2024-02-26T07:36:59;95893.00;;;2.69;100.00
49947;BME280;35839;48.662;13.300;2024-02-26T07:39:24;95898.44;;;2.46;100.00
49947;BME280;35839;48.662;13.300;2024-02-26T07:41:49;95898.59;;;2.55;100.00
49947;BME280;35839;48.662;13.300;2024-02-26T07:44:17;95896.13;;;2.82;100.00
49947;BME280;35839;48.662;13.300;2024-02-26T07:46:44;95893.25;;;2.85;100.00
49947;BME280;35839;48.662;13.300;2024-02-26T07:49:09;95902.22;;;2.81;100.00
49947;BME280;35839;48.662;13.300;2024-02-26T07:51:35;95899.38;;;2.74;100.00
49947;BME280;35839;48.662;13.300;2024-02-26T07:54:00;95902.22;;;2.81;100.00
49947;BME280;35839;48.662;13.300;2024-02-26T07:56:26;95905.63;;;3.01;100.00
49947;BME280;35839;48.662;13.300;2024-02-26T07:58:51;95915.47;;;3.25;100.00
49947;BME280;35839;48.662;13.300;2024-02-26T08:01:16;95905.91;;;3.35;100.00
49947;BME280;35839;48.662;13.300;2024-02-26T08:03:42;95901.53;;;3.46;100.00
49947;BME280;35839;48.662;13.300;2024-02-26T08:06:10;95901.53;;;3.46;100.00
49947;BME280;35839;48.662;13.300;2024-02-26T08:08:36;95902.31;;;3.84;100.00
49947;BME280;35839;48.662;13.300;2024-02-26T08:11:01;95900.19;;;3.97;100.00
49947;BME280;35839;48.662;13.300;2024-02-26T08:13:27;95901.88;;;4.34;100.00
49947;BME280;35839;48.662;13.300;2024-02-26T08:15:52;95907.66;;;4.46;100.00
49947;BME280;35839;48.662;13.300;2024-02-26T08:18:18;95906.47;;;4.22;100.00
49947;BME280;35839;48.662;13.300;2024-02-26T08:20:44;95905.34;;;4.25;100.00
49947;BME280;35839;48.662;13.300;2024-02-26T08:23:10;95911.09;;;4.54;100.00
49947;BME280;35839;48.662;13.300;2024-02-26T08:25:35;95908.50;;;4.54;100.00
49947;BME280;35839;48.662;13.300;2024-02-26T08:28:01;95913.25;;;4.59;100.00
49947;BME280;35839;48.662;13.300;2024-02-26T08:30:26;95911.19;;;4.62;100.00
49947;BME280;35839;48.662;13.300;2024-02-26T08:32:51;95904.38;;;5.05;100.00
49947;BME280;35839;48.662;13.300;2024-02-26T08:35:17;95903.22;;;5.00;100.00
49947;BME280;35839;48.662;13.300;2024-02-26T08:37:47;95904.31;;;4.71;100.00
49947;BME280;35839;48.662;13.300;2024-02-26T08:40:13;95917.84;;;4.83;100.00
49947;BME280;35839;48.662;13.300;2024-02-26T08:42:38;95912.38;;;5.12;100.00
49947;BME280;35839;48.662;13.300;2024-02-26T08:45:07;95909.22;;;5.53;100.00
49947;BME280;35839;48.662;13.300;2024-02-26T08:47:32;95912.09;;;5.84;100.00
49947;BME280;35839;48.662;13.300;2024-02-26T08:49:58;95912.16;;;5.92;100.00
49947;BME280;35839;48.662;13.300;2024-02-26T08:52:23;95921.16;;;6.14;100.00
49947;BME280;35839;48.662;13.300;2024-02-26T08:54:49;95919.41;;;6.23;100.00
49947;BME280;35839;48.662;13.300;2024-02-26T08:57:15;95922.72;;;6.49;100.00
49947;BME280;35839;48.662;13.300;2024-02-26T08:59:40;95919.00;;;6.85;100.00
49947;BME280;35839;48.662;13.300;2024-02-26T09:02:05;95911.84;;;7.03;100.00
49947;BME280;35839;48.662;13.300;2024-02-26T09:04:31;95920.94;;;7.24;100.00
49947;BME280;35839;48.662;13.300;2024-02-26T09:06:58;95919.47;;;7.21;100.00
49947;BME280;35839;48.662;13.300;2024-02-26T09:09:23;95923.50;;;7.32;100.00
49947;BME280;35839;48.662;13.300;2024-02-26T09:11:51;95931.66;;;7.37;100.00
49947;BME280;35839;48.662;13.300;2024-02-26T09:14:17;95925.91;;;7.58;100.00
49947;BME280;35839;48.662;13.300;2024-02-26T09:16:43;95922.22;;;7.20;100.00
49947;BME280;35839;48.662;13.300;2024-02-26T09:19:08;95921.72;;;7.41;100.00
49947;BME280;35839;48.662;13.300;2024-02-26T09:21:34;95930.66;;;7.46;100.00
49947;BME280;35839;48.662;13.300;2024-02-26T09:24:00;95930.16;;;7.51;100.00
49947;BME280;35839;48.662;13.300;2024-02-26T09:26:25;95920.41;;;7.92;100.00
49947;BME280;35839;48.662;13.300;2024-02-26T09:28:50;95928.22;;;8.00;100.00
49947;BME280;35839;48.662;13.300;2024-02-26T09:31:17;95932.09;;;8.36;100.00
49947;BME280;35839;48.662;13.300;2024-02-26T09:33:43;95926.81;;;8.21;100.00
49947;BME280;35839;48.662;13.300;2024-02-26T09:36:09;95932.69;;;8.23;100.00
49947;BME280;35839;48.662;13.300;2024-02-26T09:38:37;95934.53;;;8.06;100.00
49947;BME280;35839;48.662;13.300;2024-02-26T09:41:06;95946.91;;;7.56;100.00
49947;BME280;35839;48.662;13.300;2024-02-26T09:43:35;95943.91;;;7.84;100.00
49947;BME280;35839;48.662;13.300;2024-02-26T09:46:04;95951.31;;;8.12;100.00
49947;BME280;35839;48.662;13.300;2024-02-26T09:48:31;95956.22;;;8.07;100.00
49947;BME280;35839;48.662;13.300;2024-02-26T09:51:00;95950.78;;;8.16;100.00
49947;BME280;35839;48.662;13.300;2024-02-26T09:53:28;95951.63;;;8.09;100.00
49947;BME280;35839;48.662;13.300;2024-02-26T09:55:54;95949.56;;;7.96;100.00
49947;BME280;35839;48.662;13.300;2024-02-26T09:58:20;95951.47;;;7.63;100.00
49947;BME280;35839;48.662;13.300;2024-02-26T10:00:51;95942.91;;;7.85;100.00
49947;BME280;35839;48.662;13.300;2024-02-26T10:03:21;95947.84;;;8.19;100.00
49947;BME280;35839;48.662;13.300;2024-02-26T10:05:49;95952.16;;;8.35;100.00
49947;BME280;35839;48.662;13.300;2024-02-26T10:08:16;95943.84;;;8.00;100.00
49947;BME280;35839;48.662;13.300;2024-02-26T10:10:43;95950.13;;;8.54;100.00
49947;BME280;35839;48.662;13.300;2024-02-26T10:13:10;95940.44;;;8.00;100.00
49947;BME280;35839;48.662;13.300;2024-02-26T10:15:37;95939.03;;;8.20;100.00
49947;BME280;35839;48.662;13.300;2024-02-26T10:18:06;95940.88;;;8.51;100.00
49947;BME280;35839;48.662;13.300;2024-02-26T10:20:33;95933.66;;;8.76;100.00
49947;BME280;35839;48.662;13.300;2024-02-26T10:23:02;95938.69;;;8.86;100.00
49947;BME280;35839;48.662;13.300;2024-02-26T10:25:27;95942.59;;;8.59;100.00
49947;BME280;35839;48.662;13.300;2024-02-26T10:27:53;95929.41;;;8.83;100.00
49947;BME280;35839;48.662;13.300;2024-02-26T10:30:19;95928.97;;;8.95;100.00
49947;BME280;35839;48.662;13.300;2024-02-26T10:32:45;95932.06;;;9.51;97.44
49947;BME280;35839;48.662;13.300;2024-02-26T10:35:16;95932.84;;;8.99;100.00
49947;BME280;35839;48.662;13.300;2024-02-26T10:37:43;95937.22;;;9.59;97.04
49947;BME280;35839;48.662;13.300;2024-02-26T10:40:15;95926.91;;;9.58;100.00
49947;BME280;35839;48.662;13.300;2024-02-26T10:42:42;95936.81;;;10.07;95.59
49947;BME280;35839;48.662;13.300;2024-02-26T10:45:09;95931.41;;;10.08;100.00
49947;BME280;35839;48.662;13.300;2024-02-26T10:47:38;95934.22;;;10.22;97.86
49947;BME280;35839;48.662;13.300;2024-02-26T10:50:06;95931.69;;;10.13;98.56
49947;BME280;35839;48.662;13.300;2024-02-26T10:52:33;95931.06;;;9.97;97.56
49947;BME280;35839;48.662;13.300;2024-02-26T10:55:03;95929.53;;;10.17;97.78
49947;BME280;35839;48.662;13.300;2024-02-26T10:57:33;95927.94;;;10.52;93.70
49947;BME280;35839;48.662;13.300;2024-02-26T11:00:00;95930.16;;;10.70;93.22
49947;BME280;35839;48.662;13.300;2024-02-26T11:02:30;95933.94;;;10.31;95.21
49947;BME280;35839;48.662;13.300;2024-02-26T11:04:56;95930.47;;;10.82;90.34
49947;BME280;35839;48.662;13.300;2024-02-26T11:07:22;95926.44;;;11.29;87.81
49947;BME280;35839;48.662;13.300;2024-02-26T11:09:48;95927.63;;;10.26;91.17
49947;BME280;35839;48.662;13.300;2024-02-26T11:12:19;95936.69;;;10.81;90.31
49947;BME280;35839;48.662;13.300;2024-02-26T11:14:46;95934.16;;;11.16;86.82
49947;BME280;35839;48.662;13.300;2024-02-26T11:17:13;95929.50;;;10.90;86.66
49947;BME280;35839;48.662;13.300;2024-02-26T11:19:41;95936.84;;;10.58;87.57
49947;BME280;35839;48.662;13.300;2024-02-26T11:22:07;95929.75;;;10.95;88.53
49947;BME280;35839;48.662;13.300;2024-02-26T11:24:34;95930.31;;;10.69;89.30
49947;BME280;35839;48.662;13.300;2024-02-26T11:27:02;95920.72;;;11.19;86.57
49947;BME280;35839;48.662;13.300;2024-02-26T11:29:34;95920.69;;;10.91;90.59
49947;BME280;35839;48.662;13.300;2024-02-26T11:32:02;95927.94;;;11.17;85.85
49947;BME280;35839;48.662;13.300;2024-02-26T11:34:28;95917.59;;;11.09;87.73
49947;BME280;35839;48.662;13.300;2024-02-26T11:36:55;95913.25;;;11.51;86.23
49947;BME280;35839;48.662;13.300;2024-02-26T11:39:23;95916.50;;;10.75;86.73
49947;BME280;35839;48.662;13.300;2024-02-26T11:41:50;95917.72;;;10.58;90.29
49947;BME280;35839;48.662;13.300;2024-02-26T11:44:28;95912.38;;;10.44;97.00
49947;BME280;35839;48.662;13.300;2024-02-26T11:46:56;95909.91;;;10.28;99.13
49947;BME280;35839;48.662;13.300;2024-02-26T11:51:54;95905.25;;;10.23;94.03
49947;BME280;35839;48.662;13.300;2024-02-26T11:54:48;95899.97;;;10.53;96.68
49947;BME280;35839;48.662;13.300;2024-02-26T11:59:53;95904.31;;;10.46;97.30
49947;BME280;35839;48.662;13.300;2024-02-26T12:02:44;95903.59;;;10.37;94.81
49947;BME280;35839;48.662;13.300;2024-02-26T12:05:15;95903.03;;;10.57;99.33
49947;BME280;35839;48.662;13.300;2024-02-26T12:07:48;95895.34;;;10.33;95.58
49947;BME280;35839;48.662;13.300;2024-02-26T12:12:58;95895.41;;;10.83;92.08
49947;BME280;35839;48.662;13.300;2024-02-26T12:15:30;95898.78;;;10.99;91.79
49947;BME280;35839;48.662;13.300;2024-02-26T12:17:57;95902.41;;;10.76;94.78
49947;BME280;35839;48.662;13.300;2024-02-26T12:20:23;95892.81;;;11.11;90.86
49947;BME280;35839;48.662;13.300;2024-02-26T12:22:49;95895.97;;;10.79;93.66
49947;BME280;35839;48.662;13.300;2024-02-26T12:25:20;95900.59;;;10.76;93.93
49947;BME280;35839;48.662;13.300;2024-02-26T12:27:46;95902.16;;;10.71;94.81
49947;BME280;35839;48.662;13.300;2024-02-26T12:30:12;95880.50;;;11.05;92.08
49947;BME280;35839;48.662;13.300;2024-02-26T12:32:39;95897.31;;;11.46;91.27
49947;BME280;35839;48.662;13.300;2024-02-26T12:35:06;95894.00;;;11.09;94.20
49947;BME280;35839;48.662;13.300;2024-02-26T12:37:32;95890.13;;;11.26;91.48
49947;BME280;35839;48.662;13.300;2024-02-26T12:39:57;95893.09;;;10.95;93.86
49947;BME280;35839;48.662;13.300;2024-02-26T12:42:22;95883.13;;;10.62;93.98
49947;BME280;35839;48.662;13.300;2024-02-26T12:44:49;95897.84;;;10.85;93.79
49947;BME280;35839;48.662;13.300;2024-02-26T12:47:15;95896.41;;;10.82;93.55
49947;BME280;35839;48.662;13.300;2024-02-26T12:49:47;95885.38;;;10.44;98.02
49947;BME280;35839;48.662;13.300;2024-02-26T12:52:13;95890.81;;;10.64;99.09
49947;BME280;35839;48.662;13.300;2024-02-26T12:54:39;95889.44;;;10.89;97.34